Time;durP1;ratioP1;P1;durP2;ratioP2;P2;SDS_P1;SDS_P2;PMS_P1;PMS_P2;Temp;Humidity;BMP_temperature;BMP_pressure;BME280_temperature;BME280_humidity;BME280_pressure;Samples;Min_cycle;Max_cycle;Signal;HPM_P1;HPM_P2
2023/05/13 00:01:28;;;;;;;11.52;7.72;;;;;;;;;;5093856;28;20084;-70
2023/05/13 00:03:54;;;;;;;12.82;8.90;;;;;;;;;;5093611;28;20112;-70
2023/05/13 00:06:20;;;;;;;12.60;8.10;;;;;;;;;;5103343;28;20304;-70
2023/05/13 00:08:46;;;;;;;16.27;9.40;;;;;;;;;;5100947;28;20466;-69
2023/05/13 00:11:13;;;;;;;14.30;11.02;;;;;;;;;;5101127;28;20084;-70
2023/05/13 00:13:39;;;;;;;11.88;9.43;;;;;;;;;;5093405;28;20192;-70
2023/05/13 00:16:05;;;;;;;10.73;8.65;;;;;;;;;;5099309;28;20044;-69
2023/05/13 00:18:31;;;;;;;9.90;7.35;;;;;;;;;;5105751;28;20035;-70
2023/05/13 00:20:58;;;;;;;13.82;9.40;;;;;;;;;;5093743;28;20059;-70
2023/05/13 00:23:24;;;;;;;14.77;8.50;;;;;;;;;;5097711;28;20419;-70
2023/05/13 00:25:50;;;;;;;13.75;8.85;;;;;;;;;;5096790;28;20083;-70
2023/05/13 00:28:16;;;;;;;11.57;7.85;;;;;;;;;;5103764;28;20036;-70
2023/05/13 00:30:44;;;;;;;14.57;9.00;;;;;;;;;;5104176;28;20043;-70
2023/05/13 00:33:10;;;;;;;12.73;7.78;;;;;;;;;;5096906;28;20144;-70
2023/05/13 00:35:36;;;;;;;12.80;8.75;;;;;;;;;;5106459;28;20491;-69
2023/05/13 00:38:03;;;;;;;11.65;8.70;;;;;;;;;;5095223;28;20032;-70
2023/05/13 00:40:29;;;;;;;12.48;9.27;;;;;;;;;;5097280;28;20063;-70
2023/05/13 00:42:55;;;;;;;12.00;9.23;;;;;;;;;;5098832;28;20048;-70
2023/05/13 00:45:21;;;;;;;12.30;9.55;;;;;;;;;;5100210;28;20123;-70
2023/05/13 00:47:48;;;;;;;13.10;9.68;;;;;;;;;;5091778;28;20101;-70
2023/05/13 00:50:15;;;;;;;12.57;9.18;;;;;;;;;;5101818;28;20542;-70
2023/05/13 00:52:42;;;;;;;12.63;9.70;;;;;;;;;;5103571;28;20399;-70
2023/05/13 00:55:09;;;;;;;19.13;10.05;;;;;;;;;;5106490;28;20067;-70
2023/05/13 00:57:36;;;;;;;14.57;10.23;;;;;;;;;;5094671;28;20649;-70
2023/05/13 01:00:04;;;;;;;12.18;9.65;;;;;;;;;;5099663;28;20489;-70
2023/05/13 01:02:49;;;;;;;14.93;10.70;;;;;;;;;;5102386;28;20039;-70
2023/05/13 01:05:28;;;;;;;12.45;10.30;;;;;;;;;;5095923;28;20127;-70
2023/05/13 01:08:08;;;;;;;17.05;11.73;;;;;;;;;;5099496;28;20040;-69
2023/05/13 01:10:41;;;;;;;16.35;10.10;;;;;;;;;;5102212;28;20051;-69
2023/05/13 01:13:13;;;;;;;13.02;9.60;;;;;;;;;;5108487;28;20120;-70
2023/05/13 01:15:40;;;;;;;15.27;10.50;;;;;;;;;;5096581;28;20081;-70
2023/05/13 01:18:10;;;;;;;13.25;10.98;;;;;;;;;;5103700;28;20127;-70
2023/05/13 01:20:37;;;;;;;28.85;10.93;;;;;;;;;;5105524;28;20032;-70
2023/05/13 01:23:05;;;;;;;12.98;10.40;;;;;;;;;;5104032;28;20043;-70
2023/05/13 01:25:31;;;;;;;12.73;9.57;;;;;;;;;;5098083;28;20293;-70
2023/05/13 01:27:57;;;;;;;12.93;11.18;;;;;;;;;;5095978;28;20238;-70
2023/05/13 01:30:23;;;;;;;13.95;11.88;;;;;;;;;;5107825;28;20047;-70
2023/05/13 01:32:50;;;;;;;12.80;9.82;;;;;;;;;;5108493;28;20040;-70
2023/05/13 01:35:17;;;;;;;14.98;10.18;;;;;;;;;;5106284;28;20384;-70
2023/05/13 01:37:43;;;;;;;13.18;10.40;;;;;;;;;;5101836;28;20078;-70
2023/05/13 01:40:10;;;;;;;12.40;10.63;;;;;;;;;;5105197;28;20484;-70
2023/05/13 01:42:36;;;;;;;14.05;11.32;;;;;;;;;;5097725;28;20115;-70
2023/05/13 01:45:02;;;;;;;14.73;10.20;;;;;;;;;;5098701;28;20035;-70
2023/05/13 01:47:28;;;;;;;14.60;10.55;;;;;;;;;;5100052;28;20047;-70
2023/05/13 01:49:55;;;;;;;12.05;10.05;;;;;;;;;;5105663;28;20088;-70
2023/05/13 01:52:21;;;;;;;12.48;9.73;;;;;;;;;;5095604;28;20469;-70
2023/05/13 01:54:47;;;;;;;17.20;10.05;;;;;;;;;;5100316;28;20431;-70
2023/05/13 01:57:13;;;;;;;12.60;9.70;;;;;;;;;;5102397;28;20043;-70
2023/05/13 01:59:39;;;;;;;14.65;9.70;;;;;;;;;;5105609;28;20133;-70
2023/05/13 02:02:05;;;;;;;19.05;9.88;;;;;;;;;;5100848;28;20127;-69
2023/05/13 02:04:31;;;;;;;11.80;8.85;;;;;;;;;;5103920;28;20135;-69
2023/05/13 02:06:58;;;;;;;13.68;8.48;;;;;;;;;;5106641;28;20040;-70
2023/05/13 02:09:24;;;;;;;13.38;9.82;;;;;;;;;;5104691;28;20038;-70
2023/05/13 02:11:50;;;;;;;10.57;8.73;;;;;;;;;;5092034;28;20555;-70
2023/05/13 02:14:16;;;;;;;13.00;8.80;;;;;;;;;;5097544;28;20136;-69
2023/05/13 02:16:42;;;;;;;11.77;8.90;;;;;;;;;;5103150;28;20179;-70
2023/05/13 02:19:08;;;;;;;10.73;8.88;;;;;;;;;;5098487;28;20559;-70
2023/05/13 02:21:34;;;;;;;16.35;9.77;;;;;;;;;;5101453;28;20584;-70
2023/05/13 02:24:01;;;;;;;10.10;8.00;;;;;;;;;;5100147;28;20042;-70
2023/05/13 02:26:27;;;;;;;14.38;8.98;;;;;;;;;;5106060;28;20167;-71
2023/05/13 02:28:53;;;;;;;11.25;8.30;;;;;;;;;;5105178;28;20032;-69
2023/05/13 02:31:19;;;;;;;12.18;8.93;;;;;;;;;;5096684;28;20047;-69
2023/05/13 02:33:45;;;;;;;12.45;8.55;;;;;;;;;;5101928;28;20042;-70
2023/05/13 02:36:11;;;;;;;10.30;8.73;;;;;;;;;;5106740;28;20062;-70
2023/05/13 02:38:38;;;;;;;12.75;8.75;;;;;;;;;;5095113;28;20040;-70
2023/05/13 02:41:04;;;;;;;10.90;9.63;;;;;;;;;;5103036;28;20477;-69
2023/05/13 02:43:30;;;;;;;10.18;9.07;;;;;;;;;;5103043;28;20451;-70
2023/05/13 02:45:56;;;;;;;11.88;9.25;;;;;;;;;;5104953;28;20586;-70
2023/05/13 02:48:22;;;;;;;18.75;11.15;;;;;;;;;;5093912;28;20175;-70
2023/05/13 02:50:49;;;;;;;11.77;9.40;;;;;;;;;;5097068;28;20081;-70
2023/05/13 02:53:15;;;;;;;13.60;9.85;;;;;;;;;;5105204;28;20396;-70
2023/05/13 02:55:41;;;;;;;14.32;10.20;;;;;;;;;;5096490;28;20051;-70
2023/05/13 02:58:08;;;;;;;14.50;9.25;;;;;;;;;;5094909;28;20039;-69
2023/05/13 03:00:34;;;;;;;14.10;9.90;;;;;;;;;;5099126;28;20036;-70
2023/05/13 03:03:01;;;;;;;13.77;10.32;;;;;;;;;;5106057;28;20035;-70
2023/05/13 03:05:27;;;;;;;12.98;10.48;;;;;;;;;;5105321;28;20546;-70
2023/05/13 03:07:53;;;;;;;12.63;10.15;;;;;;;;;;5097431;28;20376;-70
2023/05/13 03:10:19;;;;;;;14.07;11.35;;;;;;;;;;5096678;28;20040;-70
2023/05/13 03:12:45;;;;;;;17.15;11.73;;;;;;;;;;5105533;28;20126;-69
2023/05/13 03:15:11;;;;;;;18.65;12.85;;;;;;;;;;5103809;28;20061;-70
2023/05/13 03:17:38;;;;;;;14.90;11.90;;;;;;;;;;5096088;28;20435;-70
2023/05/13 03:20:04;;;;;;;15.85;11.25;;;;;;;;;;5101923;28;20504;-70
2023/05/13 03:22:30;;;;;;;17.65;11.38;;;;;;;;;;5095967;28;20054;-70
2023/05/13 03:24:57;;;;;;;15.65;11.50;;;;;;;;;;5096058;28;20040;-70
2023/05/13 03:27:23;;;;;;;15.57;11.90;;;;;;;;;;5099258;28;20043;-70
2023/05/13 03:29:49;;;;;;;11.98;10.23;;;;;;;;;;5102124;28;20250;-70
2023/05/13 03:32:15;;;;;;;13.05;10.68;;;;;;;;;;5110286;27;20062;-70
2023/05/13 03:34:41;;;;;;;12.88;10.07;;;;;;;;;;5099047;27;20047;-70
2023/05/13 03:37:08;;;;;;;13.57;9.45;;;;;;;;;;5097027;28;20079;-70
2023/05/13 03:39:35;;;;;;;12.85;9.40;;;;;;;;;;5099381;28;20062;-70
2023/05/13 03:42:01;;;;;;;13.30;7.95;;;;;;;;;;5088467;28;20036;-70
2023/05/13 03:44:27;;;;;;;14.02;9.15;;;;;;;;;;5097744;28;20050;-70
2023/05/13 03:46:54;;;;;;;11.57;8.60;;;;;;;;;;5096580;28;20090;-71
2023/05/13 03:49:20;;;;;;;11.90;8.63;;;;;;;;;;5088706;28;20036;-70
2023/05/13 03:51:46;;;;;;;14.82;9.88;;;;;;;;;;5093684;28;20539;-71
2023/05/13 03:54:12;;;;;;;10.02;8.68;;;;;;;;;;5096761;28;20036;-70
2023/05/13 03:56:38;;;;;;;10.27;8.43;;;;;;;;;;5100659;28;20353;-70
2023/05/13 03:59:04;;;;;;;11.07;7.88;;;;;;;;;;5091209;28;20060;-70
2023/05/13 04:01:35;;;;;;;13.30;9.30;;;;;;;;;;5091798;28;20043;-69
2023/05/13 04:04:02;;;;;;;15.40;8.13;;;;;;;;;;5089241;28;20058;-70
2023/05/13 04:06:28;;;;;;;11.38;8.50;;;;;;;;;;5070939;28;20776;-70
2023/05/13 04:08:54;;;;;;;10.50;8.48;;;;;;;;;;5094441;27;20040;-71
2023/05/13 04:11:20;;;;;;;13.15;7.93;;;;;;;;;;5099513;28;20055;-70
2023/05/13 04:13:46;;;;;;;9.38;7.63;;;;;;;;;;5094298;28;20119;-71
2023/05/13 04:16:13;;;;;;;8.85;7.22;;;;;;;;;;5095790;28;20228;-70
2023/05/13 04:18:39;;;;;;;11.07;7.72;;;;;;;;;;5091798;28;20062;-71
2023/05/13 04:21:06;;;;;;;9.85;7.57;;;;;;;;;;5090214;28;20055;-70
2023/05/13 04:23:32;;;;;;;11.05;7.75;;;;;;;;;;5095421;28;20044;-71
2023/05/13 04:25:58;;;;;;;13.88;8.45;;;;;;;;;;5105129;28;20038;-70
2023/05/13 04:28:24;;;;;;;11.32;7.88;;;;;;;;;;5095639;28;20453;-70
2023/05/13 04:30:53;;;;;;;11.50;7.97;;;;;;;;;;5101681;28;20032;-70
2023/05/13 04:33:19;;;;;;;10.02;7.32;;;;;;;;;;5096945;28;20113;-70
2023/05/13 04:35:45;;;;;;;9.10;7.03;;;;;;;;;;5097944;28;20524;-70
2023/05/13 04:38:11;;;;;;;10.57;7.45;;;;;;;;;;5092410;28;20035;-70
2023/05/13 04:40:37;;;;;;;8.60;7.57;;;;;;;;;;5089192;28;20437;-71
2023/05/13 04:43:03;;;;;;;10.00;6.85;;;;;;;;;;5091249;28;20038;-71
2023/05/13 04:45:30;;;;;;;12.25;6.63;;;;;;;;;;5090385;27;20425;-70
2023/05/13 04:47:57;;;;;;;9.05;7.55;;;;;;;;;;5097538;28;20040;-71
2023/05/13 04:50:23;;;;;;;10.40;7.32;;;;;;;;;;5101223;27;20043;-71
2023/05/13 04:52:49;;;;;;;8.68;6.95;;;;;;;;;;5102217;28;20036;-71
2023/05/13 04:55:15;;;;;;;8.60;7.35;;;;;;;;;;5094332;28;20047;-70
2023/05/13 04:57:41;;;;;;;12.23;7.10;;;;;;;;;;5103743;28;20445;-70
2023/05/13 05:00:08;;;;;;;10.73;7.40;;;;;;;;;;5106777;28;20042;-70
2023/05/13 05:02:34;;;;;;;8.18;7.25;;;;;;;;;;5105822;28;20079;-70
2023/05/13 05:05:00;;;;;;;12.68;7.88;;;;;;;;;;5101832;28;20036;-70
2023/05/13 05:07:26;;;;;;;10.80;7.20;;;;;;;;;;5108371;28;20080;-70
2023/05/13 05:09:52;;;;;;;8.63;5.93;;;;;;;;;;5101939;28;20048;-71
2023/05/13 05:12:18;;;;;;;10.82;7.15;;;;;;;;;;5103097;28;20159;-70
2023/05/13 05:14:45;;;;;;;9.00;7.30;;;;;;;;;;5090136;28;20105;-70
2023/05/13 05:17:11;;;;;;;13.93;6.38;;;;;;;;;;5097676;28;20032;-70
2023/05/13 05:19:37;;;;;;;9.57;6.57;;;;;;;;;;5093347;28;20036;-70
2023/05/13 05:22:03;;;;;;;8.32;6.97;;;;;;;;;;5093054;28;20046;-70
2023/05/13 05:24:29;;;;;;;8.80;6.65;;;;;;;;;;5092458;28;20520;-71
2023/05/13 05:26:55;;;;;;;11.95;6.72;;;;;;;;;;5091524;28;20073;-70
2023/05/13 05:29:22;;;;;;;8.75;7.25;;;;;;;;;;5096260;28;20521;-70
2023/05/13 05:31:48;;;;;;;10.23;6.18;;;;;;;;;;5101400;28;20408;-70
2023/05/13 05:34:14;;;;;;;12.55;7.68;;;;;;;;;;5089792;28;20039;-71
2023/05/13 05:36:40;;;;;;;12.93;6.80;;;;;;;;;;5093192;28;20040;-70
2023/05/13 05:39:07;;;;;;;9.40;6.95;;;;;;;;;;5093116;28;20516;-70
2023/05/13 05:41:33;;;;;;;9.30;6.28;;;;;;;;;;5095069;28;20090;-70
2023/05/13 05:43:59;;;;;;;8.88;5.90;;;;;;;;;;5090787;28;20485;-70
2023/05/13 05:46:25;;;;;;;9.48;5.80;;;;;;;;;;5094529;28;20180;-70
2023/05/13 05:48:51;;;;;;;11.55;6.18;;;;;;;;;;5095965;28;20092;-71
2023/05/13 05:51:17;;;;;;;9.48;6.85;;;;;;;;;;5097354;28;20466;-71
2023/05/13 05:53:44;;;;;;;10.95;6.75;;;;;;;;;;5091077;28;20047;-71
2023/05/13 05:56:10;;;;;;;10.75;6.70;;;;;;;;;;5096258;28;20049;-69
2023/05/13 05:58:36;;;;;;;7.25;5.65;;;;;;;;;;5096603;28;20039;-70
2023/05/13 06:01:02;;;;;;;8.00;6.25;;;;;;;;;;5100624;28;20058;-70
2023/05/13 06:03:28;;;;;;;10.23;6.18;;;;;;;;;;5101175;28;20050;-71
2023/05/13 06:05:54;;;;;;;10.45;6.18;;;;;;;;;;5092313;28;20032;-70
2023/05/13 06:08:26;;;;;;;11.35;6.65;;;;;;;;;;5092311;28;20040;-71
2023/05/13 06:10:52;;;;;;;7.32;5.60;;;;;;;;;;5095584;28;20073;-71
2023/05/13 06:13:19;;;;;;;10.27;6.50;;;;;;;;;;5093342;28;20095;-71
2023/05/13 06:15:45;;;;;;;9.88;6.05;;;;;;;;;;5095664;28;20058;-71
2023/05/13 06:18:11;;;;;;;10.98;6.35;;;;;;;;;;5100268;28;20105;-71
2023/05/13 06:20:37;;;;;;;8.55;5.90;;;;;;;;;;5092663;28;20195;-70
2023/05/13 06:23:03;;;;;;;11.55;6.32;;;;;;;;;;5103548;28;20043;-70
2023/05/13 06:25:29;;;;;;;11.18;6.10;;;;;;;;;;5093051;28;20093;-70
2023/05/13 06:27:55;;;;;;;9.55;5.85;;;;;;;;;;5090088;28;20042;-71
2023/05/13 06:30:22;;;;;;;10.80;6.70;;;;;;;;;;5093717;28;20040;-71
2023/05/13 06:32:48;;;;;;;10.48;5.47;;;;;;;;;;5099386;27;20434;-70
2023/05/13 06:35:14;;;;;;;7.63;5.68;;;;;;;;;;5088598;28;20615;-71
2023/05/13 06:37:40;;;;;;;11.57;6.22;;;;;;;;;;5094413;28;20036;-70
2023/05/13 06:40:07;;;;;;;9.45;5.93;;;;;;;;;;5090147;28;20487;-70
2023/05/13 06:42:38;;;;;;;9.23;6.13;;;;;;;;;;5088190;28;20050;-70
2023/05/13 06:45:05;;;;;;;10.25;5.95;;;;;;;;;;5095454;28;20047;-71
2023/05/13 06:47:31;;;;;;;9.23;6.05;;;;;;;;;;5090734;28;20036;-70
2023/05/13 06:49:57;;;;;;;10.52;6.15;;;;;;;;;;5094991;28;20046;-71
2023/05/13 06:52:23;;;;;;;9.68;6.47;;;;;;;;;;5097075;28;20044;-70
2023/05/13 06:54:49;;;;;;;6.85;5.53;;;;;;;;;;5094360;28;20054;-71
2023/05/13 06:57:15;;;;;;;10.80;7.32;;;;;;;;;;5098752;28;20122;-70
2023/05/13 06:59:41;;;;;;;9.85;6.53;;;;;;;;;;5104919;28;20100;-71
2023/05/13 07:02:08;;;;;;;9.07;6.03;;;;;;;;;;5095559;28;20050;-70
2023/05/13 07:04:34;;;;;;;8.27;5.43;;;;;;;;;;5099588;28;20563;-70
2023/05/13 07:07:01;;;;;;;8.77;6.13;;;;;;;;;;5090937;28;20093;-71
2023/05/13 07:09:27;;;;;;;9.55;5.85;;;;;;;;;;5081941;28;20629;-71
2023/05/13 07:11:53;;;;;;;10.13;6.07;;;;;;;;;;5096119;28;20078;-71
2023/05/13 07:14:20;;;;;;;10.38;5.53;;;;;;;;;;5097741;28;20130;-71
2023/05/13 07:16:46;;;;;;;7.45;6.00;;;;;;;;;;5090315;28;20096;-70
2023/05/13 07:19:12;;;;;;;20.70;5.68;;;;;;;;;;5097395;28;20043;-71
2023/05/13 07:21:38;;;;;;;10.27;5.60;;;;;;;;;;5101376;28;20047;-71
2023/05/13 07:24:04;;;;;;;6.45;4.65;;;;;;;;;;5094449;28;20051;-71
2023/05/13 07:26:31;;;;;;;7.65;5.28;;;;;;;;;;5091251;28;20038;-71
2023/05/13 07:28:58;;;;;;;8.77;6.10;;;;;;;;;;5094580;28;20062;-70
2023/05/13 07:31:25;;;;;;;8.88;6.38;;;;;;;;;;5098980;27;20472;-70
2023/05/13 07:33:50;;;;;;;8.38;5.95;;;13.60;99.90;;;;;;5101061;27;20040;-71
2023/05/13 07:36:16;;;;;;;8.70;6.30;;;15.50;99.90;;;;;;5096763;28;20055;-71
2023/05/13 07:38:43;;;;;;;9.70;5.72;;;15.40;99.90;;;;;;5101081;28;20046;-71
2023/05/13 07:41:09;;;;;;;14.98;6.00;;;15.50;99.90;;;;;;5088494;28;20040;-71
2023/05/13 07:43:34;;;;;;;11.68;6.13;;;15.50;99.90;;;;;;5090896;28;20577;-71
2023/05/13 07:46:02;;;;;;;9.98;5.55;;;15.60;99.90;;;;;;5095024;28;20035;-70
2023/05/13 07:48:27;;;;;;;8.85;5.80;;;15.60;99.90;;;;;;5092811;28;20370;-70
2023/05/13 07:50:53;;;;;;;13.15;6.50;;;15.70;99.90;;;;;;5088769;28;20100;-70
2023/05/13 07:53:19;;;;;;;9.73;6.30;;;15.70;99.90;;;;;;5088385;28;20481;-71
2023/05/13 07:55:45;;;;;;;6.85;5.45;;;15.80;99.90;;;;;;5076829;28;20049;-70
2023/05/13 07:58:11;;;;;;;10.27;5.82;;;15.80;99.90;;;;;;5095658;28;20036;-70
2023/05/13 08:00:37;;;;;;;13.77;5.85;;;15.80;99.90;;;;;;5085301;28;20040;-69
2023/05/13 08:03:03;;;;;;;7.88;5.07;;;15.90;99.90;;;;;;5096257;28;20036;-70
2023/05/13 08:05:29;;;;;;;7.32;5.97;;;16.00;99.90;;;;;;5099919;28;20405;-70
2023/05/13 08:07:54;;;;;;;8.73;5.38;;;16.00;99.90;;;;;;5090292;28;20036;-70
2023/05/13 08:10:20;;;;;;;7.97;5.72;;;16.00;99.90;;;;;;5092683;28;20052;-71
2023/05/13 08:12:53;;;;;;;8.95;6.20;;;16.10;99.90;;;;;;5101066;28;20040;-69
2023/05/13 08:15:18;;;;;;;9.02;5.43;;;16.10;99.90;;;;;;5092545;28;20044;-70
2023/05/13 08:17:45;;;;;;;7.53;6.05;;;;;;;;;;5097653;28;20043;-70
2023/05/13 08:20:11;;;;;;;11.45;5.97;;;;;;;;;;5090195;28;20173;-70
2023/05/13 08:22:37;;;;;;;11.82;5.53;;;;;;;;;;5097476;28;20405;-70
2023/05/13 08:25:04;;;;;;;11.00;6.57;;;;;;;;;;5098463;28;20405;-70
2023/05/13 08:27:30;;;;;;;8.45;5.03;;;16.20;99.90;;;;;;5087141;28;20067;-70
2023/05/13 08:29:55;;;;;;;11.88;6.32;;;16.40;99.90;;;;;;5090425;28;20035;-71
2023/05/13 08:32:21;;;;;;;11.80;6.63;;;16.50;99.90;;;;;;5095815;28;20048;-69
2023/05/13 08:34:47;;;;;;;9.65;6.68;;;16.50;99.90;;;;;;5099653;28;20517;-70
2023/05/13 08:37:13;;;;;;;9.57;6.38;;;16.60;99.90;;;;;;5095965;28;20203;-70
2023/05/13 08:39:39;;;;;;;8.68;6.00;;;16.60;99.90;;;;;;5090461;28;20122;-70
2023/05/13 08:42:08;;;;;;;8.88;6.13;;;16.70;99.90;;;;;;5089040;28;20457;-70
2023/05/13 08:44:38;;;;;;;11.57;6.45;;;16.70;99.90;;;;;;5093700;28;20067;-70
2023/05/13 08:47:20;;;;;;;11.02;5.60;;;16.80;99.90;;;;;;5087942;28;20047;-70
2023/05/13 08:49:46;;;;;;;9.65;6.15;;;16.80;99.90;;;;;;5098059;28;20112;-70
2023/05/13 08:52:12;;;;;;;9.40;5.85;;;16.80;99.90;;;;;;5101846;28;20146;-71
2023/05/13 08:54:38;;;;;;;15.20;6.28;;;16.90;99.90;;;;;;5091987;28;20040;-71
2023/05/13 08:57:04;;;;;;;9.02;6.40;;;17.00;99.90;;;;;;5089554;28;20066;-70
2023/05/13 08:59:30;;;;;;;11.40;7.00;;;17.00;99.90;;;;;;5097456;28;20071;-71
2023/05/13 09:01:56;;;;;;;8.73;5.50;;;17.10;99.90;;;;;;5097072;28;20508;-70
2023/05/13 09:04:24;;;;;;;7.97;5.88;;;17.10;99.90;;;;;;5097732;28;20038;-71
2023/05/13 09:06:49;;;;;;;9.45;5.80;;;17.10;99.90;;;;;;5089445;28;20458;-71
2023/05/13 09:09:15;;;;;;;10.15;6.00;;;17.20;99.90;;;;;;5089150;28;20067;-71
2023/05/13 09:11:41;;;;;;;11.25;5.93;;;17.30;99.90;;;;;;5090689;28;20044;-70
2023/05/13 09:14:10;;;;;;;8.52;5.90;;;17.30;99.90;;;;;;5099226;28;20911;-71
2023/05/13 09:16:37;;;;;;;14.18;7.03;;;17.30;99.90;;;;;;5087876;28;20369;-70
2023/05/13 09:19:04;;;;;;;10.27;6.35;;;17.40;99.90;;;;;;5094371;28;20104;-71
2023/05/13 09:21:32;;;;;;;10.23;5.65;;;17.40;99.90;;;;;;5098870;28;20070;-71
2023/05/13 09:24:12;;;;;;;8.98;6.25;;;17.50;99.90;;;;;;5091211;28;20405;-70
2023/05/13 09:26:39;;;;;;;7.40;5.85;;;17.50;99.90;;;;;;5092504;28;20412;-71
2023/05/13 09:29:25;;;;;;;8.23;6.03;;;17.50;99.90;;;;;;5090766;28;20048;-71
2023/05/13 09:31:53;;;;;;;9.30;5.68;;;17.60;99.90;;;;;;5098034;28;20047;-70
2023/05/13 09:34:30;;;;;;;8.90;5.97;;;17.60;99.90;;;;;;5089938;28;20056;-71
2023/05/13 09:37:03;;;;;;;11.48;5.80;;;17.60;99.90;;;;;;5093629;28;20390;-71
2023/05/13 09:39:30;;;;;;;9.95;5.88;;;17.70;99.90;;;;;;5102655;28;20044;-71
2023/05/13 09:41:56;;;;;;;7.30;6.40;;;17.80;99.90;;;;;;5095812;28;20507;-71
2023/05/13 09:44:22;;;;;;;8.13;6.38;;;17.80;99.90;;;;;;5093600;28;20119;-71
2023/05/13 09:46:51;;;;;;;9.25;6.43;;;17.80;99.90;;;;;;5100182;28;20024;-71
2023/05/13 09:49:17;;;;;;;9.32;6.45;;;17.80;99.90;;;;;;5093087;28;20047;-71
2023/05/13 09:51:44;;;;;;;10.10;5.65;;;17.90;99.90;;;;;;5097351;27;20058;-71
2023/05/13 09:54:10;;;;;;;19.85;6.90;;;17.90;99.90;;;;;;5111796;27;20088;-71
2023/05/13 09:56:36;;;;;;;7.63;6.38;;;17.90;99.90;;;;;;5093234;28;20036;-71
2023/05/13 09:59:03;;;;;;;7.20;6.10;;;17.90;99.90;;;;;;5094019;28;20066;-71
2023/05/13 10:01:29;;;;;;;12.00;6.30;;;18.00;99.90;;;;;;5092504;28;20161;-71
2023/05/13 10:03:57;;;;;;;9.07;6.75;;;;;;;;;;5101303;28;20096;-71
2023/05/13 10:06:24;;;;;;;10.30;7.38;;;;;;;;;;5091992;28;20055;-72
2023/05/13 10:08:51;;;;;;;14.07;6.47;;;;;;;;;;5088270;28;20036;-71
2023/05/13 10:11:23;;;;;;;12.02;5.78;;;;;;;;;;5101332;28;20509;-71
2023/05/13 10:14:05;;;;;;;10.18;6.85;;;;;;;;;;5093797;28;20083;-71
2023/05/13 10:16:34;;;;;;;7.65;5.65;;;;;;;;;;5101186;28;20706;-71
2023/05/13 10:19:01;;;;;;;10.88;6.95;;;;;;;;;;5097704;28;20092;-71
2023/05/13 10:21:27;;;;;;;8.68;6.15;;;;;;;;;;5094018;28;20541;-70
2023/05/13 10:23:53;;;;;;;9.15;6.65;;;;;;;;;;5103802;27;20043;-70
2023/05/13 10:26:21;;;;;;;10.93;6.50;;;;;;;;;;5077013;28;20093;-70
2023/05/13 10:28:47;;;;;;;9.77;5.90;;;;;;;;;;5095760;28;20067;-70
2023/05/13 10:31:13;;;;;;;9.43;5.97;;;;;;;;;;5097189;28;20047;-70
2023/05/13 10:33:40;;;;;;;10.65;5.63;;;;;;;;;;5094809;28;20122;-70
2023/05/13 10:36:12;;;;;;;7.32;5.22;;;;;;;;;;5091669;28;20060;-71
2023/05/13 10:38:42;;;;;;;10.32;5.68;;;;;;;;;;5093124;28;20066;-70
2023/05/13 10:41:11;;;;;;;8.98;5.70;;;;;;;;;;5093205;28;20143;-71
2023/05/13 10:43:37;;;;;;;9.10;5.65;;;;;;;;;;5096886;28;20054;-70
2023/05/13 10:46:05;;;;;;;8.18;5.90;;;;;;;;;;5093233;28;20063;-71
2023/05/13 10:48:39;;;;;;;12.10;5.95;;;;;;;;;;5094406;28;20371;-71
2023/05/13 10:51:06;;;;;;;9.75;6.35;;;;;;;;;;5103597;28;20392;-71
2023/05/13 10:53:36;;;;;;;10.93;5.97;;;;;;;;;;5095425;27;20048;-70
2023/05/13 10:56:06;;;;;;;8.77;5.10;;;;;;;;;;5102705;28;20050;-70
2023/05/13 10:58:36;;;;;;;9.75;5.97;;;;;;;;;;5095872;28;20097;-71
2023/05/13 11:01:12;;;;;;;6.38;5.32;;;;;;;;;;5098333;28;20059;-71
2023/05/13 11:03:39;;;;;;;6.72;5.50;;;;;;;;;;5099875;28;20036;-70
2023/05/13 11:06:08;;;;;;;9.55;5.95;;;;;;;;;;5095940;28;20042;-71
2023/05/13 11:08:38;;;;;;;9.57;6.20;;;;;;;;;;5077995;28;20040;-70
2023/05/13 11:11:23;;;;;;;13.60;6.50;;;;;;;;;;5102388;28;20111;-70
2023/05/13 11:13:53;;;;;;;9.48;5.88;;;;;;;;;;5101101;28;20519;-70
2023/05/13 11:16:20;;;;;;;15.77;6.35;;;;;;;;;;5093078;28;20048;-71
2023/05/13 11:18:47;;;;;;;10.07;7.22;;;;;;;;;;5103851;28;20088;-70
2023/05/13 11:21:14;;;;;;;10.10;5.72;;;;;;;;;;5105346;28;20047;-70
2023/05/13 11:23:55;;;;;;;11.63;6.50;;;;;;;;;;5105404;28;20416;-70
2023/05/13 11:26:21;;;;;;;10.93;6.97;;;;;;;;;;5093285;28;20044;-70
2023/05/13 11:29:00;;;;;;;8.73;6.75;;;;;;;;;;5102687;28;20429;-63
2023/05/13 11:31:27;;;;;;;12.48;6.28;;;;;;;;;;5106249;27;20042;-63
2023/05/13 11:34:06;;;;;;;12.30;6.10;;;;;;;;;;5104199;27;20174;-63
2023/05/13 11:36:32;;;;;;;8.00;6.63;;;;;;;;;;5089086;28;20163;-63
2023/05/13 11:39:15;;;;;;;12.82;8.10;;;;;;;;;;5096078;28;20445;-63
2023/05/13 11:41:50;;;;;;;12.38;8.13;;;;;;;;;;5099819;28;20052;-63
2023/05/13 11:44:21;;;;;;;12.93;7.03;;;;;;;;;;5108127;28;20126;-63
2023/05/13 11:46:57;;;;;;;21.92;8.32;;;;;;;;;;5107294;28;20040;-63
2023/05/13 11:49:36;;;;;;;8.73;6.68;;;;;;;;;;5101375;28;20031;-63
2023/05/13 11:52:12;;;;;;;9.35;5.85;;;;;;;;;;5106345;28;20047;-63
2023/05/13 11:54:54;;;;;;;10.15;6.60;;;18.00;99.90;;;;;;5104757;28;20039;-63
2023/05/13 11:57:21;;;;;;;8.77;6.07;;;19.30;99.90;;;;;;5094660;28;20148;-63
2023/05/13 11:59:54;;;;;;;9.27;5.57;;;19.30;99.90;;;;;;5098233;28;20059;-63
2023/05/13 12:02:22;;;;;;;8.35;5.40;;;19.40;99.90;;;;;;5100146;28;20122;-63
2023/05/13 12:04:50;;;;;;;10.18;6.38;;;19.40;99.90;;;;;;5102168;28;20092;-63
2023/05/13 12:07:23;;;;;;;14.10;5.95;;;;;;;;;;5099057;28;20043;-63
2023/05/13 12:09:50;;;;;;;12.90;5.18;;;;;;;;;;5098735;28;20082;-63
2023/05/13 12:12:16;;;;;;;7.60;5.35;;;;;;;;;;5104274;28;20060;-63
2023/05/13 12:14:44;;;;;;;7.82;5.57;;;;;;;;;;5103224;28;20048;-63
2023/05/13 12:17:11;;;;;;;7.47;5.65;;;;;;;;;;5101261;28;20096;-63
2023/05/13 12:19:37;;;;;;;9.68;6.07;;;;;;;;;;5091936;28;20114;-63
2023/05/13 12:22:04;;;;;;;9.93;6.05;;;;;;;;;;5093876;28;20040;-63
2023/05/13 12:24:33;;;;;;;8.07;5.03;;;;;;;;;;5098758;28;20044;-63
2023/05/13 12:27:06;;;;;;;10.70;5.15;;;;;;;;;;5101798;28;20116;-63
2023/05/13 12:29:40;;;;;;;10.55;5.57;;;;;;;;;;5093874;28;20040;-63
2023/05/13 12:32:06;;;;;;;8.10;4.80;;;;;;;;;;5105954;28;20071;-63
2023/05/13 12:34:33;;;;;;;11.43;4.93;;;;;;;;;;5099958;28;20059;-64
2023/05/13 12:37:10;;;;;;;7.43;5.18;;;;;;;;;;5093710;28;20390;-64
2023/05/13 12:39:36;;;;;;;9.65;4.28;;;;;;;;;;5097593;28;20377;-64
2023/05/13 12:42:02;;;;;;;10.02;4.60;;;;;;;;;;5104313;28;20477;-63
2023/05/13 12:44:30;;;;;;;8.10;5.47;;;;;;;;;;5085521;28;20064;-64
2023/05/13 12:46:57;;;;;;;7.53;5.32;;;;;;;;;;5090687;28;20487;-64
2023/05/13 12:49:23;;;;;;;7.70;5.15;;;;;;;;;;5104485;28;20119;-64
2023/05/13 12:51:54;;;;;;;8.55;5.10;;;;;;;;;;5102632;28;20043;-64
2023/05/13 12:54:20;;;;;;;8.25;5.32;;;;;;;;;;5094641;28;20062;-64
2023/05/13 12:56:47;;;;;;;9.00;5.47;;;;;;;;;;5092059;28;20044;-64
2023/05/13 12:59:14;;;;;;;9.18;5.85;;;;;;;;;;5099444;28;20035;-64
2023/05/13 13:01:41;;;;;;;9.18;5.80;;;;;;;;;;5098528;28;20062;-63
2023/05/13 13:04:07;;;;;;;6.93;5.18;;;;;;;;;;5098591;28;20061;-63
2023/05/13 13:06:33;;;;;;;12.75;5.82;;;;;;;;;;5090069;28;20119;-63
2023/05/13 13:08:59;;;;;;;8.18;5.55;;;;;;;;;;5092543;28;20043;-63
2023/05/13 13:11:26;;;;;;;9.52;5.68;;;;;;;;;;5090449;28;20052;-64
2023/05/13 13:13:52;;;;;;;7.30;5.05;;;;;;;;;;5101618;28;20051;-63
2023/05/13 13:16:18;;;;;;;8.70;4.85;;;;;;;;;;5091320;28;20101;-63
2023/05/13 13:18:44;;;;;;;8.55;5.28;;;;;;;;;;5096065;28;20592;-64
2023/05/13 13:21:10;;;;;;;8.30;5.55;;;;;;;;;;5107972;28;20404;-64
2023/05/13 13:23:37;;;;;;;7.13;5.13;;;;;;;;;;5098282;28;20102;-63
2023/05/13 13:26:03;;;;;;;7.95;5.50;;;;;;;;;;5093182;28;20178;-64
2023/05/13 13:28:30;;;;;;;10.73;4.63;;;;;;;;;;5106211;28;20405;-63
2023/05/13 13:30:58;;;;;;;10.55;5.32;;;;;;;;;;5094428;28;20067;-63
2023/05/13 13:33:24;;;;;;;8.98;4.93;;;;;;;;;;5093687;28;20222;-63
2023/05/13 13:35:50;;;;;;;8.52;5.55;;;;;;;;;;5094787;28;20051;-64
2023/05/13 13:38:16;;;;;;;6.50;4.70;;;;;;;;;;5099355;28;20808;-64
2023/05/13 13:40:42;;;;;;;11.13;5.97;;;;;;;;;;5100547;28;20048;-64
2023/05/13 13:43:08;;;;;;;6.80;5.07;;;;;;;;;;5103574;28;20462;-64
2023/05/13 13:45:34;;;;;;;8.52;5.82;;;;;;;;;;5106755;28;20040;-64
2023/05/13 13:48:01;;;;;;;11.80;6.10;;;;;;;;;;5098119;28;20035;-65
2023/05/13 13:50:27;;;;;;;8.32;5.03;;;;;;;;;;5092843;28;20164;-64
2023/05/13 13:52:54;;;;;;;7.18;5.38;;;;;;;;;;5092822;28;20040;-64
2023/05/13 13:55:20;;;;;;;8.52;5.75;;;;;;;;;;5100170;28;20101;-64
2023/05/13 13:57:47;;;;;;;8.00;5.68;;;;;;;;;;5101975;28;20640;-63
2023/05/13 14:00:13;;;;;;;10.05;6.43;;;;;;;;;;5097816;28;20120;-63
2023/05/13 14:02:40;;;;;;;6.20;4.97;;;;;;;;;;5096661;28;20043;-64
2023/05/13 14:05:06;;;;;;;6.45;4.90;;;;;;;;;;5108514;28;20050;-64
2023/05/13 14:07:32;;;;;;;7.90;5.57;;;;;;;;;;5104382;28;20449;-63
2023/05/13 14:09:58;;;;;;;12.18;6.63;;;;;;;;;;5099363;28;20115;-63
2023/05/13 14:12:25;;;;;;;7.25;5.53;;;;;;;;;;5103216;28;20043;-64